sensor_id;sensor_type;location;lat;lon;timestamp;temperature;humidity
14873;DHT22;7528;48.576;19.122;2023-04-24T00:04:13;13.40;56.80
14873;DHT22;7528;48.576;19.122;2023-04-24T00:09:17;13.40;56.80
14873;DHT22;7528;48.576;19.122;2023-04-24T00:14:21;13.30;56.40
14873;DHT22;7528;48.576;19.122;2023-04-24T00:19:23;13.20;56.70
14873;DHT22;7528;48.576;19.122;2023-04-24T00:24:26;13.20;57.30
14873;DHT22;7528;48.576;19.122;2023-04-24T00:29:30;13.10;56.90
14873;DHT22;7528;48.576;19.122;2023-04-24T00:34:32;13.10;57.20
14873;DHT22;7528;48.576;19.122;2023-04-24T00:39:35;13.10;57.20
14873;DHT22;7528;48.576;19.122;2023-04-24T00:44:39;13.10;57.30
14873;DHT22;7528;48.576;19.122;2023-04-24T00:49:41;13.10;57.50
14873;DHT22;7528;48.576;19.122;2023-04-24T00:54:43;13.00;57.70
14873;DHT22;7528;48.576;19.122;2023-04-24T00:59:47;13.00;57.50
14873;DHT22;7528;48.576;19.122;2023-04-24T01:04:51;12.90;57.50
14873;DHT22;7528;48.576;19.122;2023-04-24T01:09:53;12.90;57.90
14873;DHT22;7528;48.576;19.122;2023-04-24T01:14:57;12.80;58.30
14873;DHT22;7528;48.576;19.122;2023-04-24T01:20:00;12.80;58.50
14873;DHT22;7528;48.576;19.122;2023-04-24T01:25:08;12.80;58.50
14873;DHT22;7528;48.576;19.122;2023-04-24T01:30:12;12.80;58.30
14873;DHT22;7528;48.576;19.122;2023-04-24T01:35:15;12.70;58.20
14873;DHT22;7528;48.576;19.122;2023-04-24T01:40:19;12.70;58.20
14873;DHT22;7528;48.576;19.122;2023-04-24T01:45:21;12.70;58.70
14873;DHT22;7528;48.576;19.122;2023-04-24T01:50:24;12.70;58.60
14873;DHT22;7528;48.576;19.122;2023-04-24T01:55:28;12.70;59.00
14873;DHT22;7528;48.576;19.122;2023-04-24T02:00:30;12.70;59.30
14873;DHT22;7528;48.576;19.122;2023-04-24T02:05:33;12.60;59.80
14873;DHT22;7528;48.576;19.122;2023-04-24T02:10:39;12.60;59.70
14873;DHT22;7528;48.576;19.122;2023-04-24T02:15:41;12.70;59.90
14873;DHT22;7528;48.576;19.122;2023-04-24T02:20:44;12.70;60.00
14873;DHT22;7528;48.576;19.122;2023-04-24T02:25:48;12.60;59.70
14873;DHT22;7528;48.576;19.122;2023-04-24T02:30:52;12.60;59.60
14873;DHT22;7528;48.576;19.122;2023-04-24T02:35:57;12.60;60.10
14873;DHT22;7528;48.576;19.122;2023-04-24T02:41:01;12.60;59.80
14873;DHT22;7528;48.576;19.122;2023-04-24T02:46:07;12.60;59.80
14873;DHT22;7528;48.576;19.122;2023-04-24T02:51:09;12.60;60.30
14873;DHT22;7528;48.576;19.122;2023-04-24T02:56:13;12.50;60.60
14873;DHT22;7528;48.576;19.122;2023-04-24T03:01:16;12.50;60.80
14873;DHT22;7528;48.576;19.122;2023-04-24T03:06:18;12.50;60.80
14873;DHT22;7528;48.576;19.122;2023-04-24T03:11:23;12.50;60.70
14873;DHT22;7528;48.576;19.122;2023-04-24T03:16:26;12.50;60.10
14873;DHT22;7528;48.576;19.122;2023-04-24T03:21:30;12.50;60.10
14873;DHT22;7528;48.576;19.122;2023-04-24T03:26:35;12.50;61.10
14873;DHT22;7528;48.576;19.122;2023-04-24T03:31:51;12.50;61.80
14873;DHT22;7528;48.576;19.122;2023-04-24T03:36:54;12.60;62.00
14873;DHT22;7528;48.576;19.122;2023-04-24T03:41:59;12.60;61.70
14873;DHT22;7528;48.576;19.122;2023-04-24T03:47:13;12.70;61.90
14873;DHT22;7528;48.576;19.122;2023-04-24T03:52:17;12.70;60.40
14873;DHT22;7528;48.576;19.122;2023-04-24T03:57:21;12.80;60.10
14873;DHT22;7528;48.576;19.122;2023-04-24T04:02:36;12.80;61.00
14873;DHT22;7528;48.576;19.122;2023-04-24T04:07:39;12.70;61.20
14873;DHT22;7528;48.576;19.122;2023-04-24T04:12:43;12.70;61.20
14873;DHT22;7528;48.576;19.122;2023-04-24T04:17:46;12.70;61.40
14873;DHT22;7528;48.576;19.122;2023-04-24T04:22:49;12.70;62.20
14873;DHT22;7528;48.576;19.122;2023-04-24T04:28:00;12.60;61.80
14873;DHT22;7528;48.576;19.122;2023-04-24T04:33:03;12.70;62.80
14873;DHT22;7528;48.576;19.122;2023-04-24T04:38:07;12.70;62.90
14873;DHT22;7528;48.576;19.122;2023-04-24T04:43:24;12.80;63.00
14873;DHT22;7528;48.576;19.122;2023-04-24T04:48:29;12.90;64.00
14873;DHT22;7528;48.576;19.122;2023-04-24T04:53:35;12.90;62.90
14873;DHT22;7528;48.576;19.122;2023-04-24T04:58:39;12.90;62.30
14873;DHT22;7528;48.576;19.122;2023-04-24T05:03:45;12.90;64.10
14873;DHT22;7528;48.576;19.122;2023-04-24T05:08:50;13.00;64.00
14873;DHT22;7528;48.576;19.122;2023-04-24T05:14:17;13.10;63.20
14873;DHT22;7528;48.576;19.122;2023-04-24T05:19:20;13.20;62.00
14873;DHT22;7528;48.576;19.122;2023-04-24T05:24:23;13.30;61.50
14873;DHT22;7528;48.576;19.122;2023-04-24T05:29:35;13.30;63.20
14873;DHT22;7528;48.576;19.122;2023-04-24T05:34:39;13.40;61.20
14873;DHT22;7528;48.576;19.122;2023-04-24T05:39:43;13.50;59.60
14873;DHT22;7528;48.576;19.122;2023-04-24T05:44:47;13.50;62.60
14873;DHT22;7528;48.576;19.122;2023-04-24T05:49:50;13.50;63.10
14873;DHT22;7528;48.576;19.122;2023-04-24T05:54:53;13.60;62.10
14873;DHT22;7528;48.576;19.122;2023-04-24T06:00:01;13.60;59.40
14873;DHT22;7528;48.576;19.122;2023-04-24T06:05:14;13.60;58.20
14873;DHT22;7528;48.576;19.122;2023-04-24T06:10:17;13.60;56.80
14873;DHT22;7528;48.576;19.122;2023-04-24T06:15:21;13.60;57.20
14873;DHT22;7528;48.576;19.122;2023-04-24T06:20:52;13.70;58.00
14873;DHT22;7528;48.576;19.122;2023-04-24T06:25:56;13.80;57.70
14873;DHT22;7528;48.576;19.122;2023-04-24T06:31:00;13.90;58.30
14873;DHT22;7528;48.576;19.122;2023-04-24T06:36:03;14.00;58.60
14873;DHT22;7528;48.576;19.122;2023-04-24T06:41:05;14.20;57.60
14873;DHT22;7528;48.576;19.122;2023-04-24T06:46:09;14.30;57.00
14873;DHT22;7528;48.576;19.122;2023-04-24T06:51:12;14.20;56.30
14873;DHT22;7528;48.576;19.122;2023-04-24T06:56:15;14.30;56.80
14873;DHT22;7528;48.576;19.122;2023-04-24T07:01:19;14.40;56.20
14873;DHT22;7528;48.576;19.122;2023-04-24T07:06:21;14.40;56.10
14873;DHT22;7528;48.576;19.122;2023-04-24T07:11:25;14.30;56.00
14873;DHT22;7528;48.576;19.122;2023-04-24T07:16:31;14.20;56.80
14873;DHT22;7528;48.576;19.122;2023-04-24T07:21:33;14.30;57.30
14873;DHT22;7528;48.576;19.122;2023-04-24T07:26:37;14.30;57.10
14873;DHT22;7528;48.576;19.122;2023-04-24T07:31:41;14.40;57.30
14873;DHT22;7528;48.576;19.122;2023-04-24T07:36:44;14.60;57.20
14873;DHT22;7528;48.576;19.122;2023-04-24T07:41:46;14.70;57.80
14873;DHT22;7528;48.576;19.122;2023-04-24T07:46:50;14.80;56.40
14873;DHT22;7528;48.576;19.122;2023-04-24T07:51:53;14.90;56.00
14873;DHT22;7528;48.576;19.122;2023-04-24T07:56:55;14.90;56.60
14873;DHT22;7528;48.576;19.122;2023-04-24T08:02:00;15.00;56.10
14873;DHT22;7528;48.576;19.122;2023-04-24T08:07:02;15.00;55.80
14873;DHT22;7528;48.576;19.122;2023-04-24T08:12:05;15.10;55.70
14873;DHT22;7528;48.576;19.122;2023-04-24T08:17:09;15.10;56.60
14873;DHT22;7528;48.576;19.122;2023-04-24T08:22:11;15.10;56.70
14873;DHT22;7528;48.576;19.122;2023-04-24T08:27:14;15.10;57.10
14873;DHT22;7528;48.576;19.122;2023-04-24T08:32:18;15.20;59.00
14873;DHT22;7528;48.576;19.122;2023-04-24T08:37:21;15.10;58.70
14873;DHT22;7528;48.576;19.122;2023-04-24T08:42:24;15.00;58.70
14873;DHT22;7528;48.576;19.122;2023-04-24T08:47:29;15.00;60.00
14873;DHT22;7528;48.576;19.122;2023-04-24T08:52:32;15.10;60.80
14873;DHT22;7528;48.576;19.122;2023-04-24T08:57:36;15.20;61.90
14873;DHT22;7528;48.576;19.122;2023-04-24T09:02:43;15.40;62.60
14873;DHT22;7528;48.576;19.122;2023-04-24T09:07:50;15.40;62.10
14873;DHT22;7528;48.576;19.122;2023-04-24T09:12:56;15.40;63.10
14873;DHT22;7528;48.576;19.122;2023-04-24T09:18:04;15.20;64.20
14873;DHT22;7528;48.576;19.122;2023-04-24T09:23:06;15.30;66.60
14873;DHT22;7528;48.576;19.122;2023-04-24T09:28:11;15.40;68.30
14873;DHT22;7528;48.576;19.122;2023-04-24T09:33:15;15.40;67.90
14873;DHT22;7528;48.576;19.122;2023-04-24T09:38:18;15.40;67.20
14873;DHT22;7528;48.576;19.122;2023-04-24T09:43:21;15.40;69.80
14873;DHT22;7528;48.576;19.122;2023-04-24T09:48:33;15.50;68.20
14873;DHT22;7528;48.576;19.122;2023-04-24T09:53:36;15.50;67.00
14873;DHT22;7528;48.576;19.122;2023-04-24T09:58:44;15.50;69.00
14873;DHT22;7528;48.576;19.122;2023-04-24T10:03:50;15.50;70.30
14873;DHT22;7528;48.576;19.122;2023-04-24T10:08:53;15.50;69.80
14873;DHT22;7528;48.576;19.122;2023-04-24T10:13:57;15.40;69.50
14873;DHT22;7528;48.576;19.122;2023-04-24T10:19:03;15.40;71.40
14873;DHT22;7528;48.576;19.122;2023-04-24T10:24:06;15.50;73.00
14873;DHT22;7528;48.576;19.122;2023-04-24T10:29:10;15.40;72.50
14873;DHT22;7528;48.576;19.122;2023-04-24T10:34:16;15.40;72.50
14873;DHT22;7528;48.576;19.122;2023-04-24T10:39:20;15.40;74.60
14873;DHT22;7528;48.576;19.122;2023-04-24T10:44:23;15.40;74.20
14873;DHT22;7528;48.576;19.122;2023-04-24T10:49:31;15.50;75.50
14873;DHT22;7528;48.576;19.122;2023-04-24T10:54:42;15.60;75.50
14873;DHT22;7528;48.576;19.122;2023-04-24T10:59:45;15.80;75.10
14873;DHT22;7528;48.576;19.122;2023-04-24T11:04:51;15.80;72.90
14873;DHT22;7528;48.576;19.122;2023-04-24T11:09:58;15.70;72.70
14873;DHT22;7528;48.576;19.122;2023-04-24T11:15:02;15.60;72.50
14873;DHT22;7528;48.576;19.122;2023-04-24T11:20:07;15.60;72.80
14873;DHT22;7528;48.576;19.122;2023-04-24T11:25:10;15.70;72.70
14873;DHT22;7528;48.576;19.122;2023-04-24T11:30:17;15.80;72.40
14873;DHT22;7528;48.576;19.122;2023-04-24T11:35:22;15.90;73.10
14873;DHT22;7528;48.576;19.122;2023-04-24T11:40:25;15.90;71.80
14873;DHT22;7528;48.576;19.122;2023-04-24T11:45:29;15.90;71.50
14873;DHT22;7528;48.576;19.122;2023-04-24T11:50:34;15.90;72.00
14873;DHT22;7528;48.576;19.122;2023-04-24T11:55:37;15.90;71.60
14873;DHT22;7528;48.576;19.122;2023-04-24T12:00:39;15.90;70.30
14873;DHT22;7528;48.576;19.122;2023-04-24T12:05:43;15.80;71.60
14873;DHT22;7528;48.576;19.122;2023-04-24T12:10:51;15.80;70.70
14873;DHT22;7528;48.576;19.122;2023-04-24T12:15:54;15.80;70.70
14873;DHT22;7528;48.576;19.122;2023-04-24T12:21:14;15.70;70.40
14873;DHT22;7528;48.576;19.122;2023-04-24T12:26:17;15.70;70.80
14873;DHT22;7528;48.576;19.122;2023-04-24T12:31:21;15.70;70.80
14873;DHT22;7528;48.576;19.122;2023-04-24T12:36:26;15.60;71.60
14873;DHT22;7528;48.576;19.122;2023-04-24T12:41:31;15.60;70.80
14873;DHT22;7528;48.576;19.122;2023-04-24T12:46:33;15.60;71.20
14873;DHT22;7528;48.576;19.122;2023-04-24T12:51:37;15.60;71.80
14873;DHT22;7528;48.576;19.122;2023-04-24T12:56:40;15.70;72.00
14873;DHT22;7528;48.576;19.122;2023-04-24T13:01:42;15.70;72.40
14873;DHT22;7528;48.576;19.122;2023-04-24T13:06:46;15.70;71.30
14873;DHT22;7528;48.576;19.122;2023-04-24T13:11:49;15.70;71.70
14873;DHT22;7528;48.576;19.122;2023-04-24T13:16:51;15.70;73.00
14873;DHT22;7528;48.576;19.122;2023-04-24T13:21:56;15.80;71.90
14873;DHT22;7528;48.576;19.122;2023-04-24T13:27:00;15.80;72.60
14873;DHT22;7528;48.576;19.122;2023-04-24T13:32:03;15.70;72.20
14873;DHT22;7528;48.576;19.122;2023-04-24T13:37:10;15.70;72.90
14873;DHT22;7528;48.576;19.122;2023-04-24T13:42:14;15.70;72.90
14873;DHT22;7528;48.576;19.122;2023-04-24T13:47:16;15.70;73.20
14873;DHT22;7528;48.576;19.122;2023-04-24T13:52:20;15.60;74.10
14873;DHT22;7528;48.576;19.122;2023-04-24T13:57:23;15.60;74.40
14873;DHT22;7528;48.576;19.122;2023-04-24T14:02:25;15.70;75.40
14873;DHT22;7528;48.576;19.122;2023-04-24T14:07:29;15.70;75.60
14873;DHT22;7528;48.576;19.122;2023-04-24T14:12:32;15.60;76.30
14873;DHT22;7528;48.576;19.122;2023-04-24T14:17:35;15.60;76.20
14873;DHT22;7528;48.576;19.122;2023-04-24T14:22:39;15.60;76.90
14873;DHT22;7528;48.576;19.122;2023-04-24T14:27:42;15.60;76.80
14873;DHT22;7528;48.576;19.122;2023-04-24T14:32:44;15.60;77.50
14873;DHT22;7528;48.576;19.122;2023-04-24T14:37:48;15.60;78.40
14873;DHT22;7528;48.576;19.122;2023-04-24T14:42:52;15.50;79.00
14873;DHT22;7528;48.576;19.122;2023-04-24T14:47:54;15.60;78.50
14873;DHT22;7528;48.576;19.122;2023-04-24T14:52:58;15.50;78.80
14873;DHT22;7528;48.576;19.122;2023-04-24T14:58:03;15.50;79.20
14873;DHT22;7528;48.576;19.122;2023-04-24T15:03:06;15.50;80.30
14873;DHT22;7528;48.576;19.122;2023-04-24T15:08:10;15.40;80.60
14873;DHT22;7528;48.576;19.122;2023-04-24T15:13:13;15.40;81.40
14873;DHT22;7528;48.576;19.122;2023-04-24T15:18:15;15.50;80.90
14873;DHT22;7528;48.576;19.122;2023-04-24T15:23:19;15.50;80.10
14873;DHT22;7528;48.576;19.122;2023-04-24T15:28:22;15.50;80.40
14873;DHT22;7528;48.576;19.122;2023-04-24T15:33:24;15.40;80.70
14873;DHT22;7528;48.576;19.122;2023-04-24T15:38:29;15.40;81.20
14873;DHT22;7528;48.576;19.122;2023-04-24T15:43:31;15.40;81.70
14873;DHT22;7528;48.576;19.122;2023-04-24T15:48:35;15.30;81.70
14873;DHT22;7528;48.576;19.122;2023-04-24T15:53:41;15.40;81.20
14873;DHT22;7528;48.576;19.122;2023-04-24T15:58:43;15.40;80.90
14873;DHT22;7528;48.576;19.122;2023-04-24T16:03:46;15.40;80.80
14873;DHT22;7528;48.576;19.122;2023-04-24T16:08:50;15.50;81.00
14873;DHT22;7528;48.576;19.122;2023-04-24T16:13:53;15.50;80.70
14873;DHT22;7528;48.576;19.122;2023-04-24T16:18:56;15.50;81.20
14873;DHT22;7528;48.576;19.122;2023-04-24T16:24:00;15.50;82.10
14873;DHT22;7528;48.576;19.122;2023-04-24T16:29:02;15.50;81.70
14873;DHT22;7528;48.576;19.122;2023-04-24T16:34:05;15.50;81.70
14873;DHT22;7528;48.576;19.122;2023-04-24T16:39:09;15.50;82.20
14873;DHT22;7528;48.576;19.122;2023-04-24T16:44:11;15.50;81.90
14873;DHT22;7528;48.576;19.122;2023-04-24T16:49:14;15.50;82.20
14873;DHT22;7528;48.576;19.122;2023-04-24T16:54:18;15.50;82.30
14873;DHT22;7528;48.576;19.122;2023-04-24T16:59:21;15.50;82.70
14873;DHT22;7528;48.576;19.122;2023-04-24T17:04:24;15.40;83.30
14873;DHT22;7528;48.576;19.122;2023-04-24T17:09:27;15.40;84.00
14873;DHT22;7528;48.576;19.122;2023-04-24T17:14:30;15.30;84.30
14873;DHT22;7528;48.576;19.122;2023-04-24T17:19:33;15.40;84.30
14873;DHT22;7528;48.576;19.122;2023-04-24T17:24:37;15.40;84.40
14873;DHT22;7528;48.576;19.122;2023-04-24T17:29:39;15.40;84.30
14873;DHT22;7528;48.576;19.122;2023-04-24T17:34:42;15.40;84.50
14873;DHT22;7528;48.576;19.122;2023-04-24T17:39:46;15.40;84.50
14873;DHT22;7528;48.576;19.122;2023-04-24T17:44:49;15.40;84.30
14873;DHT22;7528;48.576;19.122;2023-04-24T17:49:52;15.40;84.20
14873;DHT22;7528;48.576;19.122;2023-04-24T17:54:55;15.40;83.90
14873;DHT22;7528;48.576;19.122;2023-04-24T17:59:58;15.40;84.10
14873;DHT22;7528;48.576;19.122;2023-04-24T18:05:01;15.40;84.50
14873;DHT22;7528;48.576;19.122;2023-04-24T18:10:05;15.40;85.40
14873;DHT22;7528;48.576;19.122;2023-04-24T18:15:09;15.40;85.50
14873;DHT22;7528;48.576;19.122;2023-04-24T18:20:13;15.40;85.10
14873;DHT22;7528;48.576;19.122;2023-04-24T18:25:18;15.40;84.80
14873;DHT22;7528;48.576;19.122;2023-04-24T18:30:26;15.40;85.00
14873;DHT22;7528;48.576;19.122;2023-04-24T18:35:31;15.40;84.80
14873;DHT22;7528;48.576;19.122;2023-04-24T18:40:35;15.40;84.70
14873;DHT22;7528;48.576;19.122;2023-04-24T18:45:37;15.40;84.80
14873;DHT22;7528;48.576;19.122;2023-04-24T18:50:40;15.30;85.00
14873;DHT22;7528;48.576;19.122;2023-04-24T18:55:43;15.30;85.30
14873;DHT22;7528;48.576;19.122;2023-04-24T19:00:46;15.30;85.70
14873;DHT22;7528;48.576;19.122;2023-04-24T19:05:49;15.30;85.90
14873;DHT22;7528;48.576;19.122;2023-04-24T19:10:52;15.30;86.20
14873;DHT22;7528;48.576;19.122;2023-04-24T19:15:55;15.30;86.20
14873;DHT22;7528;48.576;19.122;2023-04-24T19:20:58;15.30;86.70
14873;DHT22;7528;48.576;19.122;2023-04-24T19:26:02;15.20;87.40
14873;DHT22;7528;48.576;19.122;2023-04-24T19:31:04;15.20;87.80
14873;DHT22;7528;48.576;19.122;2023-04-24T19:36:07;15.20;87.70
14873;DHT22;7528;48.576;19.122;2023-04-24T19:41:11;15.10;87.80
14873;DHT22;7528;48.576;19.122;2023-04-24T19:46:14;15.10;88.10
14873;DHT22;7528;48.576;19.122;2023-04-24T19:51:17;15.10;87.80
14873;DHT22;7528;48.576;19.122;2023-04-24T19:56:21;15.00;89.00
14873;DHT22;7528;48.576;19.122;2023-04-24T20:01:23;15.10;88.70
14873;DHT22;7528;48.576;19.122;2023-04-24T20:06:25;15.10;88.00
14873;DHT22;7528;48.576;19.122;2023-04-24T20:11:29;15.10;88.00
14873;DHT22;7528;48.576;19.122;2023-04-24T20:16:31;15.10;88.40
14873;DHT22;7528;48.576;19.122;2023-04-24T20:21:34;15.00;89.00
14873;DHT22;7528;48.576;19.122;2023-04-24T20:26:38;15.00;88.90
14873;DHT22;7528;48.576;19.122;2023-04-24T20:31:41;15.10;88.60
14873;DHT22;7528;48.576;19.122;2023-04-24T20:36:43;15.10;88.90
14873;DHT22;7528;48.576;19.122;2023-04-24T20:41:48;15.10;89.00
14873;DHT22;7528;48.576;19.122;2023-04-24T20:46:50;15.10;88.40
14873;DHT22;7528;48.576;19.122;2023-04-24T20:51:53;15.10;88.50
14873;DHT22;7528;48.576;19.122;2023-04-24T20:56:57;15.10;88.90
14873;DHT22;7528;48.576;19.122;2023-04-24T21:01:59;15.10;88.90
14873;DHT22;7528;48.576;19.122;2023-04-24T21:07:03;15.00;89.00
14873;DHT22;7528;48.576;19.122;2023-04-24T21:12:07;15.00;89.20
14873;DHT22;7528;48.576;19.122;2023-04-24T21:17:09;15.00;89.90
14873;DHT22;7528;48.576;19.122;2023-04-24T21:22:12;15.00;90.00
14873;DHT22;7528;48.576;19.122;2023-04-24T21:27:15;15.00;90.10
14873;DHT22;7528;48.576;19.122;2023-04-24T21:32:18;14.90;90.30
14873;DHT22;7528;48.576;19.122;2023-04-24T21:37:21;14.90;90.20
14873;DHT22;7528;48.576;19.122;2023-04-24T21:42:25;15.00;90.30
14873;DHT22;7528;48.576;19.122;2023-04-24T21:47:28;14.90;90.60
14873;DHT22;7528;48.576;19.122;2023-04-24T21:52:30;14.80;91.00
14873;DHT22;7528;48.576;19.122;2023-04-24T21:57:34;14.80;91.20
14873;DHT22;7528;48.576;19.122;2023-04-24T22:02:37;14.80;91.00
14873;DHT22;7528;48.576;19.122;2023-04-24T22:07:40;14.80;91.00
14873;DHT22;7528;48.576;19.122;2023-04-24T22:12:45;14.80;91.10
14873;DHT22;7528;48.576;19.122;2023-04-24T22:17:48;14.80;90.90
14873;DHT22;7528;48.576;19.122;2023-04-24T22:22:52;14.90;90.70
14873;DHT22;7528;48.576;19.122;2023-04-24T22:27:56;14.90;90.50
14873;DHT22;7528;48.576;19.122;2023-04-24T22:32:58;14.90;90.40
14873;DHT22;7528;48.576;19.122;2023-04-24T22:38:01;14.90;90.40
14873;DHT22;7528;48.576;19.122;2023-04-24T22:43:05;14.90;90.30
14873;DHT22;7528;48.576;19.122;2023-04-24T22:48:08;14.90;90.30
14873;DHT22;7528;48.576;19.122;2023-04-24T22:53:10;14.90;90.30
14873;DHT22;7528;48.576;19.122;2023-04-24T22:58:14;14.90;90.30
14873;DHT22;7528;48.576;19.122;2023-04-24T23:03:17;14.90;90.20
14873;DHT22;7528;48.576;19.122;2023-04-24T23:08:19;14.90;89.60
14873;DHT22;7528;48.576;19.122;2023-04-24T23:13:24;14.90;89.80
14873;DHT22;7528;48.576;19.122;2023-04-24T23:18:27;14.80;89.50
14873;DHT22;7528;48.576;19.122;2023-04-24T23:23:30;14.80;89.50
14873;DHT22;7528;48.576;19.122;2023-04-24T23:28:34;14.80;89.60
14873;DHT22;7528;48.576;19.122;2023-04-24T23:33:37;14.80;87.70
14873;DHT22;7528;48.576;19.122;2023-04-24T23:38:39;14.80;87.00
14873;DHT22;7528;48.576;19.122;2023-04-24T23:43:43;14.80;86.10
14873;DHT22;7528;48.576;19.122;2023-04-24T23:48:46;14.70;86.70
14873;DHT22;7528;48.576;19.122;2023-04-24T23:53:48;14.70;84.70
14873;DHT22;7528;48.576;19.122;2023-04-24T23:58:54;14.70;84.90
